Flight Track Log - Related Links

Times and Time Zones

All times are in EDT time to prevent confusion due to time zone crossing. See the FFT346 flight status page for this flight to view local times or setup timezone preferences in your user account.

Time Position Orientation Groundspeed Altitude Reporting Facility
EDT Latitude Longitude Course Direction KTS MPH feet Rate Location/Type
10:05AM 36.0761 -115.1683 270° West 171 197 3,000  Level Los Angeles Center
10:05AM 36.0761 -115.1975 270° West 174 200 3,800 1,714 Climbing Los Angeles Center
10:06AM 36.0842 -115.2747 277° West 248 285 5,600 1,898 Climbing Los Angeles Center
10:07AM 36.1064 -115.2886 333° Northwest 237 273 6,900 2,848 Climbing Los Angeles Center
10:08AM 36.1739 -115.2536 23° Northeast 253 291 10,300 2,371 Climbing Los Angeles Center
10:09AM 36.1964 -115.1578 74° East 289 333 11,800 1,935 Climbing Los Angeles Center
10:10AM 36.1969 -115.0389 90° East 342 394 14,300 2,661 Climbing Los Angeles Center
10:11AM 36.1983 -114.8889 89° East 360 414 17,300 2,371 Climbing Los Angeles Center
10:12AM 36.1997 -114.7572 89° East 379 436 19,200 2,049 Climbing Los Angeles Center
10:13AM 36.1986 -114.6225 91° East 388 447 21,500 2,000 Climbing Los Angeles Center
10:14AM 36.1958 -114.4808 91° East 403 464 23,300 1,790 Climbing Los Angeles Center
10:15AM 36.1947 -114.3356 91° East 417 480 25,200 1,742 Climbing Los Angeles Center
10:16AM 36.1975 -114.1875 89° East 427 491 26,900 1,500 Climbing Los Angeles Center
10:17AM 36.2167 -114.0383 81° East 435 501 28,300 1,854 Climbing Los Angeles Center
10:18AM 36.2575 -113.8631 74° East 442 509 30,700 1,805 Climbing Los Angeles Center
10:19AM 36.3025 -113.7253 68° East 435 501 32,000 1,306 Climbing Los Angeles Center
10:20AM 36.3436 -113.5836 70° East 436 502 33,400 1,210 Climbing Los Angeles Center
10:21AM 36.3850 -113.4419 70° East 437 503 34,500 1,016 Climbing Los Angeles Center
10:22AM 36.4358 -113.3056 65° Northeast 437 503 35,500 1,065 Climbing Los Angeles Center
10:23AM 36.4936 -113.1606 64° Northeast 442 509 36,700 919 Climbing Los Angeles Center
10:24AM 36.5467 -113.0239 64° Northeast 442 509 37,400 629 Climbing Los Angeles Center
10:25AM 36.5983 -112.8864 65° Northeast 442 509 38,000 683 Climbing Los Angeles Center
10:26AM 36.6619 -112.7203 64° Northeast 444 511 38,800 488 Climbing Los Angeles Center
10:27AM 36.7147 -112.5822 64° Northeast 445 512 39,000 97 Climbing Los Angeles Center
10:29AM 36.7672 -112.4425 65° Northeast 446 513 39,000  Level Los Angeles Center
10:30AM 36.8194 -112.3033 65° Northeast 447 514 39,000  Level Los Angeles Center
10:31AM 36.8722 -112.1633 65° Northeast 448 516 39,000  Level Los Angeles Center
10:31AM 36.8936 -112.1061 65° Northeast 451 519 39,000  Level Denver Center
10:32AM 36.9469 -111.9644 65° Northeast 452 520 39,000  Level Denver Center
10:33AM 37.0111 -111.7933 65° Northeast 456 525 39,000  Level Denver Center
10:34AM 37.0628 -111.6525 65° Northeast 451 519 39,000  Level Denver Center
10:35AM 37.1153 -111.5111 65° Northeast 449 517 39,000 48 Level Denver Center
10:36AM 37.1636 -111.3706 67° East 448 516 39,100  Climbing Denver Center
10:37AM 37.2153 -111.2308 65° Northeast 445 512 39,000 -48 Descending Denver Center
10:38AM 37.2758 -111.0633 66° East 441 507 39,000  Level Denver Center
10:39AM 37.3258 -110.9242 66° East 440 506 39,000  Level Denver Center
10:40AM 37.3753 -110.7844 66° East 439 505 39,000  Level Denver Center
10:41AM 37.4242 -110.6472 66° East 432 497 39,000  Level Denver Center
10:42AM 37.4783 -110.4925 66° East 435 501 39,000  Level Denver Center
10:43AM 37.5247 -110.3603 66° East 432 497 39,000  Level Denver Center
10:44AM 37.5783 -110.2064 66° East 430 495 39,000  Level Denver Center
10:45AM 37.6247 -110.0736 66° East 432 497 39,000  Level Denver Center
10:46AM 37.6783 -109.9183 66° East 432 497 39,000  Level Denver Center
10:48AM 37.7250 -109.7842 66° East 434 499 39,000  Level Denver Center
10:49AM 37.7714 -109.6486 67° East 437 503 39,000  Level Denver Center
10:50AM 37.8258 -109.4925 66° East 435 501 39,000  Level Denver Center
10:51AM 37.8706 -109.3575 67° East 435 501 39,000  Level Denver Center
10:52AM 37.9242 -109.2003 67° East 434 499 39,000  Level Denver Center
10:53AM 37.9697 -109.0661 67° East 433 498 39,000  Level Denver Center
10:54AM 38.0303 -108.9089 64° Northeast 442 509 39,000  Level Denver Center
10:55AM 38.0872 -108.7694 63° Northeast 451 519 39,000  Level Denver Center
10:56AM 38.1533 -108.6158 61° Northeast 448 516 39,000  Level Denver Center
10:57AM 38.2078 -108.4822 63° Northeast 446 513 39,000  Level Denver Center
10:58AM 38.2722 -108.3278 62° Northeast 443 510 39,000  Level Denver Center
10:59AM 38.3269 -108.1939 62° Northeast 446 513 39,000  Level Denver Center
11:00AM 38.3817 -108.0628 62° Northeast 441 507 39,000 -145 Level Denver Center
11:01AM 38.4442 -107.9083 63° Northeast 441 507 38,700 -532 Descending Denver Center
11:02AM 38.4978 -107.7767 62° Northeast 438 504 37,900 -919 Descending Denver Center
11:03AM 38.5589 -107.6256 63° Northeast 432 497 36,800 -1,016 Descending Denver Center
11:04AM 38.6114 -107.4953 63° Northeast 431 496 35,800 -871 Descending Denver Center
11:05AM 38.6744 -107.3389 63° Northeast 440 506 35,000 -387 Descending Denver Center
11:06AM 38.7275 -107.2075 63° Northeast 437 503 35,000  Level Denver Center
11:07AM 38.7831 -107.0664 63° Northeast 441 507 35,000 -194 Level Denver Center
11:08AM 38.8383 -106.9272 63° Northeast 440 506 34,600 -532 Descending Denver Center
11:09AM 38.9058 -106.7561 63° Northeast 453 521 33,900 -726 Descending Denver Center
11:10AM 38.9600 -106.6183 63° Northeast 454 522 33,100 -919 Descending Denver Center
11:11AM 39.0225 -106.4578 63° Northeast 451 519 32,000 -1,161 Descending Denver Center
11:12AM 39.0744 -106.3236 63° Northeast 442 509 30,700 -1,210 Descending Denver Center
11:13AM 39.1350 -106.1686 63° Northeast 436 502 29,500 -1,016 Descending Denver Center
11:14AM 39.1831 -106.0397 64° Northeast 436 502 28,600 -1,296 Descending Denver Center
11:15AM 39.2358 -105.9000 64° Northeast 430 495 26,800 -2,112 Descending Denver Center
11:16AM 39.2950 -105.7453 64° Northeast 412 474 24,200 -2,274 Descending Denver Center
11:18AM 39.3439 -105.6161 64° Northeast 400 460 22,100 -1,452 Descending Denver Center
11:19AM 39.3903 -105.4956 64° Northeast 373 429 21,200 -1,113 Descending Denver Center
11:20AM 39.4428 -105.3939 56° Northeast 328 377 19,800 -1,500 Descending Denver Center
11:21AM 39.4964 -105.2894 56° Northeast 323 372 18,100 -1,355 Descending Denver Center
11:22AM 39.5467 -105.1944 56° Northeast 320 368 17,000 -1,016 Descending Denver Center
11:23AM 39.5942 -105.1025 56° Northeast 310 357 16,000 -1,016 Descending Denver Center
11:24AM 39.6442 -105.0075 56° Northeast 296 341 14,900 -1,016 Descending Denver Center
11:25AM 39.6894 -104.9186 56° Northeast 295 339 13,900 -919 Descending Denver Center
11:26AM 39.7406 -104.8222 55° Northeast 300 345 13,000 -629 Descending Denver Center
11:27AM 39.7708 -104.7269 68° East 303 349 12,600 -581 Descending Denver Center
11:28AM 39.7711 -104.6169 90° East 281 323 11,800 -871 Descending Denver Center
11:29AM 39.7706 -104.5264 90° East 255 293 10,800 -1,113 Descending Denver Center
11:30AM 39.7711 -104.4317 90° East 245 282 9,500 -1,016 Descending Denver Center
11:31AM 39.8233 -104.4089 19° North 211 243 8,700 -774 Descending Denver Center
11:32AM 39.8611 -104.4436 325° Northwest 182 209 7,900 -871 Descending Denver Center
11:33AM 39.8767 -104.5100 287° West 190 219 6,900 -950 Descending Denver Center
11:34AM 39.8833 -104.5500 282° West 177 204 6,300 -848 Descending Denver TRACON
11:35AM 39.8833 -104.6167 270° West 152 175 5,500 -706 Descending Denver TRACON
11:35AM 39.8769 -104.6347 245° Southwest 155 178 5,300 -480 Descending Denver Center
11:37AM 39.8500 -104.6667 270° West  Level FlightAware Approximate
11:44AM 39.8617 -104.6732 270° West  Level Estimated
11:45AM 39.8617 -104.6732 270° West  Level Estimated

Login

Don't have an account? Register now (free) for customized features, flight alerts, and more!